sensor_id;sensor_type;location;lat;lon;timestamp;pressure;altitude;pressure_sealevel;temperature;humidity
14800;BME280;7491;57.750;11.970;2023-05-11T00:01:07;75533.81;;;-142.11;66.60
14800;BME280;7491;57.750;11.970;2023-05-11T00:03:36;75517.53;;;-142.11;67.11
14800;BME280;7491;57.750;11.970;2023-05-11T00:06:03;75525.69;;;-142.11;66.88
14800;BME280;7491;57.750;11.970;2023-05-11T00:08:30;75519.56;;;-142.11;67.06
14800;BME280;7491;57.750;11.970;2023-05-11T00:10:56;75525.69;;;-142.11;67.62
14800;BME280;7491;57.750;11.970;2023-05-11T00:13:25;75527.72;;;-142.11;67.57
14800;BME280;7491;57.750;11.970;2023-05-11T00:15:51;75535.88;;;-142.11;67.21
14800;BME280;7491;57.750;11.970;2023-05-11T00:18:18;75533.81;;;-142.11;67.46
14800;BME280;7491;57.750;11.970;2023-05-11T00:20:47;75533.81;;;-142.11;67.34
14800;BME280;7491;57.750;11.970;2023-05-11T00:23:13;75537.91;;;-142.11;67.54
14800;BME280;7491;57.750;11.970;2023-05-11T00:25:40;75539.94;;;-142.11;67.70
14800;BME280;7491;57.750;11.970;2023-05-11T00:28:07;75562.34;;;-142.11;67.89
14800;BME280;7491;57.750;11.970;2023-05-11T00:30:34;75552.16;;;-142.11;67.67
14800;BME280;7491;57.750;11.970;2023-05-11T00:33:01;75554.22;;;-142.11;67.85
14800;BME280;7491;57.750;11.970;2023-05-11T00:35:28;75572.56;;;-142.11;67.98
14800;BME280;7491;57.750;11.970;2023-05-11T00:37:57;75560.31;;;-142.11;68.14
14800;BME280;7491;57.750;11.970;2023-05-11T00:40:24;75566.44;;;-142.11;67.92
14800;BME280;7491;57.750;11.970;2023-05-11T00:42:51;75576.63;;;-142.11;68.60
14800;BME280;7491;57.750;11.970;2023-05-11T00:45:18;75586.81;;;-142.11;68.69
14800;BME280;7491;57.750;11.970;2023-05-11T00:47:45;75603.13;;;-142.11;68.79
14800;BME280;7491;57.750;11.970;2023-05-11T00:50:11;75603.13;;;-142.11;69.63
14800;BME280;7491;57.750;11.970;2023-05-11T00:52:38;75613.31;;;-142.11;69.60
14800;BME280;7491;57.750;11.970;2023-05-11T00:55:08;75635.72;;;-142.11;70.03
14800;BME280;7491;57.750;11.970;2023-05-11T00:57:36;75641.84;;;-142.11;70.09
14800;BME280;7491;57.750;11.970;2023-05-11T01:00:04;75645.94;;;-142.11;70.34
14800;BME280;7491;57.750;11.970;2023-05-11T01:02:31;75656.13;;;-142.11;70.33
14800;BME280;7491;57.750;11.970;2023-05-11T01:04:59;75674.47;;;-142.11;70.95
14800;BME280;7491;57.750;11.970;2023-05-11T01:07:31;75678.53;;;-142.11;71.10
14800;BME280;7491;57.750;11.970;2023-05-11T01:10:05;75678.53;;;-142.11;71.31
14800;BME280;7491;57.750;11.970;2023-05-11T01:12:41;75690.75;;;-142.11;71.41
14800;BME280;7491;57.750;11.970;2023-05-11T01:15:15;75698.91;;;-142.11;71.45
14800;BME280;7491;57.750;11.970;2023-05-11T01:17:48;75703.00;;;-142.11;71.89
14800;BME280;7491;57.750;11.970;2023-05-11T01:20:20;75717.25;;;-142.11;71.89
14800;BME280;7491;57.750;11.970;2023-05-11T01:23:09;75723.38;;;-142.11;71.92
14800;BME280;7491;57.750;11.970;2023-05-11T01:25:55;75727.44;;;-142.11;72.29
14800;BME280;7491;57.750;11.970;2023-05-11T01:28:51;75735.59;;;-142.11;72.23
14800;BME280;7491;57.750;11.970;2023-05-11T01:31:29;75733.56;;;-142.11;72.79
14800;BME280;7491;57.750;11.970;2023-05-11T01:33:58;75745.81;;;-142.11;73.32
14800;BME280;7491;57.750;11.970;2023-05-11T01:36:28;75743.75;;;-142.11;72.71
14800;BME280;7491;57.750;11.970;2023-05-11T01:38:59;75743.75;;;-142.11;73.58
14800;BME280;7491;57.750;11.970;2023-05-11T01:41:28;75758.03;;;-142.11;73.89
14800;BME280;7491;57.750;11.970;2023-05-11T01:43:59;75772.28;;;-142.11;74.23
14800;BME280;7491;57.750;11.970;2023-05-11T01:46:31;75794.72;;;-142.11;75.01
14800;BME280;7491;57.750;11.970;2023-05-11T01:49:00;75794.72;;;-142.11;75.52
14800;BME280;7491;57.750;11.970;2023-05-11T01:51:31;75804.91;;;-142.11;75.75
14800;BME280;7491;57.750;11.970;2023-05-11T01:54:00;75811.03;;;-142.11;76.33
14800;BME280;7491;57.750;11.970;2023-05-11T01:56:28;75815.09;;;-142.11;76.39
14800;BME280;7491;57.750;11.970;2023-05-11T01:58:57;75813.06;;;-142.11;76.32
14800;BME280;7491;57.750;11.970;2023-05-11T02:01:26;75823.25;;;-142.11;76.63
14800;BME280;7491;57.750;11.970;2023-05-11T02:03:57;75815.09;;;-142.11;76.82
14800;BME280;7491;57.750;11.970;2023-05-11T02:06:26;75813.06;;;-142.11;77.02
14800;BME280;7491;57.750;11.970;2023-05-11T02:08:54;75811.03;;;-142.11;77.27
14800;BME280;7491;57.750;11.970;2023-05-11T02:11:23;75798.78;;;-142.11;77.08
14800;BME280;7491;57.750;11.970;2023-05-11T02:13:52;75798.78;;;-142.11;77.08
14800;BME280;7491;57.750;11.970;2023-05-11T02:16:23;75804.91;;;-142.11;76.86
14800;BME280;7491;57.750;11.970;2023-05-11T02:18:50;75796.75;;;-142.11;77.34
14800;BME280;7491;57.750;11.970;2023-05-11T02:21:19;75788.59;;;-142.11;77.09
14800;BME280;7491;57.750;11.970;2023-05-11T02:23:48;75800.84;;;-142.11;77.27
14800;BME280;7491;57.750;11.970;2023-05-11T02:26:16;75792.69;;;-142.11;77.44
14800;BME280;7491;57.750;11.970;2023-05-11T02:28:42;75798.78;;;-142.11;78.25
14800;BME280;7491;57.750;11.970;2023-05-11T02:31:15;75804.91;;;-142.11;78.35
14800;BME280;7491;57.750;11.970;2023-05-11T02:33:46;75802.88;;;-142.11;78.34
14800;BME280;7491;57.750;11.970;2023-05-11T02:36:16;75798.78;;;-142.11;78.12
14800;BME280;7491;57.750;11.970;2023-05-11T02:38:47;75794.72;;;-142.11;78.04
14800;BME280;7491;57.750;11.970;2023-05-11T02:41:19;75790.63;;;-142.11;78.40
14800;BME280;7491;57.750;11.970;2023-05-11T02:43:50;75788.59;;;-142.11;78.69
14800;BME280;7491;57.750;11.970;2023-05-11T02:46:20;75792.69;;;-142.11;78.42
14800;BME280;7491;57.750;11.970;2023-05-11T02:48:51;75800.84;;;-142.11;78.70
14800;BME280;7491;57.750;11.970;2023-05-11T02:51:23;75776.38;;;-142.11;78.11
14800;BME280;7491;57.750;11.970;2023-05-11T02:53:55;75774.34;;;-142.11;78.63
14800;BME280;7491;57.750;11.970;2023-05-11T02:56:23;75780.44;;;-142.11;78.47
14800;BME280;7491;57.750;11.970;2023-05-11T02:58:50;75778.41;;;-142.11;78.84
14800;BME280;7491;57.750;11.970;2023-05-11T03:01:17;75780.44;;;-142.11;78.69
14800;BME280;7491;57.750;11.970;2023-05-11T03:03:44;75784.53;;;-142.11;79.21
14800;BME280;7491;57.750;11.970;2023-05-11T03:06:10;75774.34;;;-142.11;78.90
14800;BME280;7491;57.750;11.970;2023-05-11T03:08:37;75778.41;;;-142.11;79.30
14800;BME280;7491;57.750;11.970;2023-05-11T03:11:06;75774.34;;;-142.11;79.23
14800;BME280;7491;57.750;11.970;2023-05-11T03:13:33;75772.28;;;-142.11;79.65
14800;BME280;7491;57.750;11.970;2023-05-11T03:16:01;75774.34;;;-142.11;79.88
14800;BME280;7491;57.750;11.970;2023-05-11T03:18:28;75774.34;;;-142.11;79.64
14800;BME280;7491;57.750;11.970;2023-05-11T03:20:56;75770.25;;;-142.11;79.27
14800;BME280;7491;57.750;11.970;2023-05-11T03:23:25;75758.03;;;-142.11;79.31
14800;BME280;7491;57.750;11.970;2023-05-11T03:25:53;75758.03;;;-142.11;79.94
14800;BME280;7491;57.750;11.970;2023-05-11T03:28:23;75762.09;;;-142.11;79.59
14800;BME280;7491;57.750;11.970;2023-05-11T03:30:51;75751.91;;;-142.11;79.73
14800;BME280;7491;57.750;11.970;2023-05-11T03:33:19;75753.94;;;-142.11;79.92
14800;BME280;7491;57.750;11.970;2023-05-11T03:35:46;75760.06;;;-142.11;79.86
14800;BME280;7491;57.750;11.970;2023-05-11T03:38:15;75753.94;;;-142.11;79.45
14800;BME280;7491;57.750;11.970;2023-05-11T03:40:43;75753.94;;;-142.11;79.82
14800;BME280;7491;57.750;11.970;2023-05-11T03:43:14;75753.94;;;-142.11;79.69
14800;BME280;7491;57.750;11.970;2023-05-11T03:45:44;75764.16;;;-142.11;79.98
14800;BME280;7491;57.750;11.970;2023-05-11T03:48:13;75756.00;;;-142.11;79.89
14800;BME280;7491;57.750;11.970;2023-05-11T03:50:41;75764.16;;;-142.11;80.26
14800;BME280;7491;57.750;11.970;2023-05-11T03:53:09;75745.81;;;-142.11;79.94
14800;BME280;7491;57.750;11.970;2023-05-11T03:55:36;75751.91;;;-142.11;80.24
14800;BME280;7491;57.750;11.970;2023-05-11T03:58:05;75753.94;;;-142.11;80.28
14800;BME280;7491;57.750;11.970;2023-05-11T04:00:32;75749.88;;;-142.11;80.64
14800;BME280;7491;57.750;11.970;2023-05-11T04:03:03;75737.66;;;-142.11;80.68
14800;BME280;7491;57.750;11.970;2023-05-11T04:05:32;75747.84;;;-142.11;80.95
14800;BME280;7491;57.750;11.970;2023-05-11T04:07:59;75747.84;;;-142.11;80.71
14800;BME280;7491;57.750;11.970;2023-05-11T04:10:26;75737.66;;;-142.11;80.51
14800;BME280;7491;57.750;11.970;2023-05-11T04:12:52;75741.72;;;-142.11;81.00
14800;BME280;7491;57.750;11.970;2023-05-11T04:15:20;75737.66;;;-142.11;81.20
14800;BME280;7491;57.750;11.970;2023-05-11T04:17:46;75741.72;;;-142.11;81.30
14800;BME280;7491;57.750;11.970;2023-05-11T04:20:15;75739.69;;;-142.11;80.95
14800;BME280;7491;57.750;11.970;2023-05-11T04:22:41;75727.44;;;-142.11;80.79
14800;BME280;7491;57.750;11.970;2023-05-11T04:25:08;75721.34;;;-142.11;80.57
14800;BME280;7491;57.750;11.970;2023-05-11T04:27:35;75711.16;;;-142.11;81.19
14800;BME280;7491;57.750;11.970;2023-05-11T04:30:02;75700.97;;;-142.11;80.80
14800;BME280;7491;57.750;11.970;2023-05-11T04:32:29;75690.75;;;-142.11;80.58
14800;BME280;7491;57.750;11.970;2023-05-11T04:34:56;75670.38;;;-142.11;80.33
14800;BME280;7491;57.750;11.970;2023-05-11T04:37:24;75672.44;;;-142.11;80.20
14800;BME280;7491;57.750;11.970;2023-05-11T04:39:51;75666.31;;;-142.11;80.32
14800;BME280;7491;57.750;11.970;2023-05-11T04:42:17;75660.19;;;-142.11;80.47
14800;BME280;7491;57.750;11.970;2023-05-11T04:44:44;75658.16;;;-142.11;80.39
14800;BME280;7491;57.750;11.970;2023-05-11T04:47:11;75650.00;;;-142.11;80.12
14800;BME280;7491;57.750;11.970;2023-05-11T04:49:37;75647.97;;;-142.11;80.66
14800;BME280;7491;57.750;11.970;2023-05-11T04:52:04;75647.97;;;-142.11;79.89
14800;BME280;7491;57.750;11.970;2023-05-11T04:54:32;75650.00;;;-142.11;80.46
14800;BME280;7491;57.750;11.970;2023-05-11T04:57:01;75639.81;;;-142.11;80.17
14800;BME280;7491;57.750;11.970;2023-05-11T04:59:27;75656.13;;;-142.11;80.33
14800;BME280;7491;57.750;11.970;2023-05-11T05:01:54;75680.56;;;-142.11;80.59
14800;BME280;7491;57.750;11.970;2023-05-11T05:04:21;75672.44;;;-142.11;80.87
14800;BME280;7491;57.750;11.970;2023-05-11T05:06:47;75658.16;;;-142.11;80.68
14800;BME280;7491;57.750;11.970;2023-05-11T05:09:14;75652.03;;;-142.11;80.77
14800;BME280;7491;57.750;11.970;2023-05-11T05:11:42;75627.59;;;-142.11;80.69
14800;BME280;7491;57.750;11.970;2023-05-11T05:14:09;75619.44;;;-142.11;80.59
14800;BME280;7491;57.750;11.970;2023-05-11T05:16:35;75609.25;;;-142.11;80.38
14800;BME280;7491;57.750;11.970;2023-05-11T05:19:02;75601.09;;;-142.11;80.25
14800;BME280;7491;57.750;11.970;2023-05-11T05:21:29;75584.78;;;-142.11;80.40
14800;BME280;7491;57.750;11.970;2023-05-11T05:23:56;75576.63;;;-142.11;80.54
14800;BME280;7491;57.750;11.970;2023-05-11T05:26:23;75572.56;;;-142.11;80.56
14800;BME280;7491;57.750;11.970;2023-05-11T05:28:51;75558.28;;;-142.11;80.17
14800;BME280;7491;57.750;11.970;2023-05-11T05:31:18;75560.31;;;-142.11;79.70
14800;BME280;7491;57.750;11.970;2023-05-11T05:33:47;75539.94;;;-142.11;79.81
14800;BME280;7491;57.750;11.970;2023-05-11T05:36:14;75539.94;;;-142.11;79.86
14800;BME280;7491;57.750;11.970;2023-05-11T05:38:41;75523.63;;;-142.11;79.04
14800;BME280;7491;57.750;11.970;2023-05-11T05:41:08;75509.38;;;-142.11;79.52
14800;BME280;7491;57.750;11.970;2023-05-11T05:43:35;75497.13;;;-142.11;79.03
14800;BME280;7491;57.750;11.970;2023-05-11T05:46:03;75491.03;;;-142.11;78.91
14800;BME280;7491;57.750;11.970;2023-05-11T05:48:30;75499.19;;;-142.11;78.68
14800;BME280;7491;57.750;11.970;2023-05-11T05:50:57;75523.63;;;-142.11;79.52
14800;BME280;7491;57.750;11.970;2023-05-11T05:53:24;75544.03;;;-142.11;80.16
14800;BME280;7491;57.750;11.970;2023-05-11T05:55:51;75556.25;;;-142.11;79.63
14800;BME280;7491;57.750;11.970;2023-05-11T05:58:18;75558.28;;;-142.11;80.37
14800;BME280;7491;57.750;11.970;2023-05-11T06:00:45;75554.22;;;-142.11;80.63
14800;BME280;7491;57.750;11.970;2023-05-11T06:03:13;75533.81;;;-142.11;79.95
14800;BME280;7491;57.750;11.970;2023-05-11T06:05:39;75519.56;;;-142.11;80.46
14800;BME280;7491;57.750;11.970;2023-05-11T06:08:09;75507.34;;;-142.11;79.22
14800;BME280;7491;57.750;11.970;2023-05-11T06:10:36;75511.41;;;-142.11;79.70
14800;BME280;7491;57.750;11.970;2023-05-11T06:13:03;75495.09;;;-142.11;79.48
14800;BME280;7491;57.750;11.970;2023-05-11T06:15:30;75486.94;;;-142.11;79.40
14800;BME280;7491;57.750;11.970;2023-05-11T06:17:57;75454.34;;;-142.11;78.96
14800;BME280;7491;57.750;11.970;2023-05-11T06:20:25;75442.13;;;-142.11;78.75
14800;BME280;7491;57.750;11.970;2023-05-11T06:22:52;75423.78;;;-142.11;78.93
14800;BME280;7491;57.750;11.970;2023-05-11T06:25:18;75413.56;;;-142.11;78.41
14800;BME280;7491;57.750;11.970;2023-05-11T06:27:46;75413.56;;;-142.11;78.62
14800;BME280;7491;57.750;11.970;2023-05-11T06:30:12;75393.19;;;-142.11;79.47
14800;BME280;7491;57.750;11.970;2023-05-11T06:32:39;75364.66;;;-142.11;78.70
14800;BME280;7491;57.750;11.970;2023-05-11T06:35:07;75350.41;;;-142.11;78.76
14800;BME280;7491;57.750;11.970;2023-05-11T06:37:35;75354.47;;;-142.11;78.25
14800;BME280;7491;57.750;11.970;2023-05-11T06:40:02;75356.50;;;-142.11;78.32
14800;BME280;7491;57.750;11.970;2023-05-11T06:42:29;75338.16;;;-142.11;78.88
14800;BME280;7491;57.750;11.970;2023-05-11T06:44:56;75319.81;;;-142.11;77.97
14800;BME280;7491;57.750;11.970;2023-05-11T06:47:23;75321.88;;;-142.11;77.53
14800;BME280;7491;57.750;11.970;2023-05-11T06:49:51;75301.50;;;-142.11;78.37
14800;BME280;7491;57.750;11.970;2023-05-11T06:52:17;75287.22;;;-142.11;78.06
14800;BME280;7491;57.750;11.970;2023-05-11T06:54:46;75268.88;;;-142.11;77.39
14800;BME280;7491;57.750;11.970;2023-05-11T06:57:12;75270.91;;;-142.11;79.00
14800;BME280;7491;57.750;11.970;2023-05-11T06:59:39;75246.47;;;-142.11;77.19
14800;BME280;7491;57.750;11.970;2023-05-11T07:02:06;75230.16;;;-142.11;76.85
14800;BME280;7491;57.750;11.970;2023-05-11T07:04:33;75230.16;;;-142.11;77.47
14800;BME280;7491;57.750;11.970;2023-05-11T07:07:00;75246.47;;;-142.11;76.80
14800;BME280;7491;57.750;11.970;2023-05-11T07:09:27;75240.34;;;-142.11;77.03
14800;BME280;7491;57.750;11.970;2023-05-11T07:11:55;75248.50;;;-142.11;77.14
14800;BME280;7491;57.750;11.970;2023-05-11T07:14:22;75217.94;;;-142.11;77.21
14800;BME280;7491;57.750;11.970;2023-05-11T07:16:49;75228.13;;;-142.11;76.45
14800;BME280;7491;57.750;11.970;2023-05-11T07:19:17;75228.13;;;-142.11;76.69
14800;BME280;7491;57.750;11.970;2023-05-11T07:21:43;75219.97;;;-142.11;77.09
14800;BME280;7491;57.750;11.970;2023-05-11T07:24:10;75191.44;;;-142.11;76.78
14800;BME280;7491;57.750;11.970;2023-05-11T07:26:37;75166.97;;;-142.11;77.55
14800;BME280;7491;57.750;11.970;2023-05-11T07:29:05;75166.97;;;-142.11;76.09
14800;BME280;7491;57.750;11.970;2023-05-11T07:31:32;75158.84;;;-142.11;76.77
14800;BME280;7491;57.750;11.970;2023-05-11T07:34:00;75162.91;;;-142.11;76.38
14800;BME280;7491;57.750;11.970;2023-05-11T07:36:27;75154.75;;;-142.11;76.54
14800;BME280;7491;57.750;11.970;2023-05-11T07:38:54;75150.69;;;-142.11;76.73
14800;BME280;7491;57.750;11.970;2023-05-11T07:41:22;75087.50;;;-142.11;76.26
14800;BME280;7491;57.750;11.970;2023-05-11T07:43:51;75083.44;;;-142.11;76.00
14800;BME280;7491;57.750;11.970;2023-05-11T07:46:19;75075.28;;;-142.11;76.09
14800;BME280;7491;57.750;11.970;2023-05-11T07:48:46;75056.94;;;-142.11;75.63
14800;BME280;7491;57.750;11.970;2023-05-11T07:51:13;75040.63;;;-142.11;74.58
14800;BME280;7491;57.750;11.970;2023-05-11T07:53:39;75069.16;;;-142.11;74.32
14800;BME280;7491;57.750;11.970;2023-05-11T07:56:06;75065.09;;;-142.11;74.98
14800;BME280;7491;57.750;11.970;2023-05-11T07:58:34;75061.00;;;-142.11;75.64
14800;BME280;7491;57.750;11.970;2023-05-11T08:01:00;75038.59;;;-142.11;74.71
14800;BME280;7491;57.750;11.970;2023-05-11T08:03:29;75032.47;;;-142.11;75.11
14800;BME280;7491;57.750;11.970;2023-05-11T08:05:56;74999.88;;;-142.11;75.49
14800;BME280;7491;57.750;11.970;2023-05-11T08:08:23;74985.63;;;-142.11;73.84
14800;BME280;7491;57.750;11.970;2023-05-11T08:10:50;74977.47;;;-142.11;75.38
14800;BME280;7491;57.750;11.970;2023-05-11T08:13:17;74997.84;;;-142.11;74.32
14800;BME280;7491;57.750;11.970;2023-05-11T08:15:44;74963.19;;;-142.11;74.80
14800;BME280;7491;57.750;11.970;2023-05-11T08:18:13;74932.63;;;-142.11;74.56
14800;BME280;7491;57.750;11.970;2023-05-11T08:20:41;74946.91;;;-142.11;73.84
14800;BME280;7491;57.750;11.970;2023-05-11T08:23:08;74959.13;;;-142.11;73.84
14800;BME280;7491;57.750;11.970;2023-05-11T08:25:48;74965.25;;;-142.11;73.94
14800;BME280;7491;57.750;11.970;2023-05-11T08:28:14;74944.84;;;-142.11;75.16
14800;BME280;7491;57.750;11.970;2023-05-11T08:30:41;74959.13;;;-142.11;73.47
14800;BME280;7491;57.750;11.970;2023-05-11T08:33:08;74938.75;;;-142.11;74.44
14800;BME280;7491;57.750;11.970;2023-05-11T08:35:34;74906.13;;;-142.11;74.95
14800;BME280;7491;57.750;11.970;2023-05-11T08:38:03;74900.03;;;-142.11;73.36
14800;BME280;7491;57.750;11.970;2023-05-11T08:40:30;74895.94;;;-142.11;72.63
14800;BME280;7491;57.750;11.970;2023-05-11T08:42:59;74928.56;;;-142.11;72.66
14800;BME280;7491;57.750;11.970;2023-05-11T08:45:26;74940.78;;;-142.11;72.51
14800;BME280;7491;57.750;11.970;2023-05-11T08:47:53;74932.63;;;-142.11;73.01
14800;BME280;7491;57.750;11.970;2023-05-11T08:50:21;74914.28;;;-142.11;72.87
14800;BME280;7491;57.750;11.970;2023-05-11T08:52:48;74934.66;;;-142.11;73.57
14800;BME280;7491;57.750;11.970;2023-05-11T08:55:16;74914.28;;;-142.11;75.49
14800;BME280;7491;57.750;11.970;2023-05-11T08:57:43;74900.03;;;-142.11;74.57
14800;BME280;7491;57.750;11.970;2023-05-11T09:00:12;74914.28;;;-142.11;73.95
14800;BME280;7491;57.750;11.970;2023-05-11T09:02:40;74914.28;;;-142.11;73.57
14800;BME280;7491;57.750;11.970;2023-05-11T09:05:08;74902.06;;;-142.11;73.63
14800;BME280;7491;57.750;11.970;2023-05-11T09:07:35;74898.00;;;-142.11;73.30
14800;BME280;7491;57.750;11.970;2023-05-11T09:10:07;74877.63;;;-142.11;73.83
14800;BME280;7491;57.750;11.970;2023-05-11T09:12:35;74834.81;;;-142.11;73.17
14800;BME280;7491;57.750;11.970;2023-05-11T09:15:03;74814.44;;;-142.11;71.71
14800;BME280;7491;57.750;11.970;2023-05-11T09:17:30;74828.72;;;-142.11;71.81
14800;BME280;7491;57.750;11.970;2023-05-11T09:19:58;74830.75;;;-142.11;71.66
14800;BME280;7491;57.750;11.970;2023-05-11T09:22:26;74834.81;;;-142.11;71.94
14800;BME280;7491;57.750;11.970;2023-05-11T09:24:53;74828.72;;;-142.11;72.53
14800;BME280;7491;57.750;11.970;2023-05-11T09:27:23;74840.94;;;-142.11;72.00
14800;BME280;7491;57.750;11.970;2023-05-11T09:29:52;74845.00;;;-142.11;71.72
14800;BME280;7491;57.750;11.970;2023-05-11T09:32:19;74873.53;;;-142.11;72.27
14800;BME280;7491;57.750;11.970;2023-05-11T09:34:46;74863.34;;;-142.11;72.38
14800;BME280;7491;57.750;11.970;2023-05-11T09:37:15;74861.31;;;-142.11;71.75
14800;BME280;7491;57.750;11.970;2023-05-11T09:39:43;74859.28;;;-142.11;70.40
14800;BME280;7491;57.750;11.970;2023-05-11T09:42:10;74871.50;;;-142.11;70.73
14800;BME280;7491;57.750;11.970;2023-05-11T09:44:38;74834.81;;;-142.11;71.10
14800;BME280;7491;57.750;11.970;2023-05-11T09:47:11;74851.13;;;-142.11;70.38
14800;BME280;7491;57.750;11.970;2023-05-11T09:49:39;74849.09;;;-142.11;71.13
14800;BME280;7491;57.750;11.970;2023-05-11T09:52:08;74853.16;;;-142.11;70.42
14800;BME280;7491;57.750;11.970;2023-05-11T09:54:43;74851.13;;;-142.11;70.03
14800;BME280;7491;57.750;11.970;2023-05-11T09:57:22;74810.38;;;-142.11;73.24
14800;BME280;7491;57.750;11.970;2023-05-11T09:59:49;74796.09;;;-142.11;71.50
14800;BME280;7491;57.750;11.970;2023-05-11T10:02:20;74765.53;;;-142.11;70.13
14800;BME280;7491;57.750;11.970;2023-05-11T10:04:47;74755.34;;;-142.11;70.34
14800;BME280;7491;57.750;11.970;2023-05-11T10:07:25;74755.34;;;-142.11;70.91
14800;BME280;7491;57.750;11.970;2023-05-11T10:09:53;74734.97;;;-142.11;71.28
14800;BME280;7491;57.750;11.970;2023-05-11T10:12:22;74763.50;;;-142.11;72.36
14800;BME280;7491;57.750;11.970;2023-05-11T10:14:51;74753.31;;;-142.11;72.36
14800;BME280;7491;57.750;11.970;2023-05-11T10:17:19;74747.19;;;-142.11;71.99
14800;BME280;7491;57.750;11.970;2023-05-11T10:19:47;74730.91;;;-142.11;71.30
14800;BME280;7491;57.750;11.970;2023-05-11T10:22:14;74724.78;;;-142.11;71.36
14800;BME280;7491;57.750;11.970;2023-05-11T10:24:42;74694.22;;;-142.11;70.74
14800;BME280;7491;57.750;11.970;2023-05-11T10:27:09;74690.16;;;-142.11;69.65
14800;BME280;7491;57.750;11.970;2023-05-11T10:29:36;74700.34;;;-142.11;70.42
14800;BME280;7491;57.750;11.970;2023-05-11T10:32:05;74688.09;;;-142.11;71.14
14800;BME280;7491;57.750;11.970;2023-05-11T10:34:35;74688.09;;;-142.11;71.70
14800;BME280;7491;57.750;11.970;2023-05-11T10:37:04;74694.22;;;-142.11;71.05
14800;BME280;7491;57.750;11.970;2023-05-11T10:39:31;74684.03;;;-142.11;71.50
14800;BME280;7491;57.750;11.970;2023-05-11T10:42:10;74684.03;;;-142.11;70.59
14800;BME280;7491;57.750;11.970;2023-05-11T10:44:53;74694.22;;;-142.11;71.61
14800;BME280;7491;57.750;11.970;2023-05-11T10:47:40;74686.06;;;-142.11;70.73
14800;BME280;7491;57.750;11.970;2023-05-11T10:50:19;74661.63;;;-142.11;71.67
14800;BME280;7491;57.750;11.970;2023-05-11T10:53:02;74667.72;;;-142.11;69.24
14800;BME280;7491;57.750;11.970;2023-05-11T10:55:43;74651.44;;;-142.11;70.35
14800;BME280;7491;57.750;11.970;2023-05-11T10:58:13;74671.81;;;-142.11;70.61
14800;BME280;7491;57.750;11.970;2023-05-11T11:03:41;74686.06;;;-142.11;69.65
14800;BME280;7491;57.750;11.970;2023-05-11T11:06:22;74694.22;;;-142.11;69.53
14800;BME280;7491;57.750;11.970;2023-05-11T11:08:57;74696.25;;;-142.11;70.25
14800;BME280;7491;57.750;11.970;2023-05-11T11:11:27;74696.25;;;-142.11;70.13
14800;BME280;7491;57.750;11.970;2023-05-11T11:13:59;74712.56;;;-142.11;73.50
14800;BME280;7491;57.750;11.970;2023-05-11T11:16:28;74720.72;;;-142.11;69.95
14800;BME280;7491;57.750;11.970;2023-05-11T11:22:00;74720.72;;;-142.11;69.60
14800;BME280;7491;57.750;11.970;2023-05-11T11:24:44;74712.56;;;-142.11;69.85
14800;BME280;7491;57.750;11.970;2023-05-11T11:27:11;74708.47;;;-142.11;69.78
14800;BME280;7491;57.750;11.970;2023-05-11T11:29:38;74702.38;;;-142.11;69.93
14800;BME280;7491;57.750;11.970;2023-05-11T11:32:24;74700.34;;;-142.11;68.27
14800;BME280;7491;57.750;11.970;2023-05-11T11:34:52;74694.22;;;-142.11;68.63
14800;BME280;7491;57.750;11.970;2023-05-11T11:37:20;74694.22;;;-142.11;70.01
14800;BME280;7491;57.750;11.970;2023-05-11T11:39:52;74692.19;;;-142.11;68.96
14800;BME280;7491;57.750;11.970;2023-05-11T11:42:36;74710.53;;;-142.11;68.43
14800;BME280;7491;57.750;11.970;2023-05-11T11:45:25;74724.78;;;-142.11;68.05
14800;BME280;7491;57.750;11.970;2023-05-11T11:48:14;74714.59;;;-142.11;69.56
14800;BME280;7491;57.750;11.970;2023-05-11T11:50:43;74712.56;;;-142.11;68.47
14800;BME280;7491;57.750;11.970;2023-05-11T11:56:53;74720.72;;;-142.11;68.27
14800;BME280;7491;57.750;11.970;2023-05-11T11:59:19;74718.66;;;-142.11;68.32
14800;BME280;7491;57.750;11.970;2023-05-11T12:01:50;74702.38;;;-142.11;69.80
14800;BME280;7491;57.750;11.970;2023-05-11T12:04:36;74739.03;;;-142.11;68.92
14800;BME280;7491;57.750;11.970;2023-05-11T12:07:07;74741.09;;;-142.11;68.94
14800;BME280;7491;57.750;11.970;2023-05-11T12:09:35;74753.31;;;-142.11;68.45
14800;BME280;7491;57.750;11.970;2023-05-11T12:12:05;74755.34;;;-142.11;68.14
14800;BME280;7491;57.750;11.970;2023-05-11T12:14:33;74751.28;;;-142.11;68.36
14800;BME280;7491;57.750;11.970;2023-05-11T12:17:06;74734.97;;;-142.11;69.19
14800;BME280;7491;57.750;11.970;2023-05-11T12:19:41;74734.97;;;-142.11;68.73
14800;BME280;7491;57.750;11.970;2023-05-11T12:22:09;74734.97;;;-142.11;68.56
14800;BME280;7491;57.750;11.970;2023-05-11T12:24:36;74722.75;;;-142.11;69.39
14800;BME280;7491;57.750;11.970;2023-05-11T12:27:05;74710.53;;;-142.11;68.92
14800;BME280;7491;57.750;11.970;2023-05-11T12:29:32;74749.25;;;-142.11;68.51
14800;BME280;7491;57.750;11.970;2023-05-11T12:31:58;74732.94;;;-142.11;68.17
14800;BME280;7491;57.750;11.970;2023-05-11T12:34:26;74730.91;;;-142.11;68.22
14800;BME280;7491;57.750;11.970;2023-05-11T12:36:53;74718.66;;;-142.11;68.88
14800;BME280;7491;57.750;11.970;2023-05-11T12:39:20;74696.25;;;-142.11;68.80
14800;BME280;7491;57.750;11.970;2023-05-11T12:41:48;74698.28;;;-142.11;67.75
14800;BME280;7491;57.750;11.970;2023-05-11T12:44:17;74720.72;;;-142.11;66.86
14800;BME280;7491;57.750;11.970;2023-05-11T12:46:45;74684.03;;;-142.11;67.73
14800;BME280;7491;57.750;11.970;2023-05-11T12:49:15;74663.66;;;-142.11;65.99
14800;BME280;7491;57.750;11.970;2023-05-11T12:51:46;74651.44;;;-142.11;66.00
14800;BME280;7491;57.750;11.970;2023-05-11T12:54:26;74647.34;;;-142.11;64.55
14800;BME280;7491;57.750;11.970;2023-05-11T12:56:54;74647.34;;;-142.11;64.68
14800;BME280;7491;57.750;11.970;2023-05-11T12:59:30;74637.16;;;-142.11;65.29